DLH2PC EDDM-EDDF
Flight info
| Callsign | DLH2PC |
|---|---|
| Flight time | 0h 33m |
| Altitude | 24000 |
| Route | GIVMI1N GIVMI Y101 ERNAS T161 DEBHI DEBHI1B |
| Aircraft | A20N/M-SDE2E3FGHIRWXY/LB1 |
Departure
| Time | 2026-05-06 16:00 |
|---|---|
| Airport | Munich Airport (EDDM) |
Arrival
| Time | 2026-05-06 16:33 |
|---|---|
| Airport | Frankfurt Main Airport (EDDF) |
| Time | Latitude | Longitude | Altitude | Speed | Heading |
|---|---|---|---|---|---|
| 2026-05-06 15:18 | 48.35456 | 11.79300 | 1475 ft | 0 kts | 263° |
| 2026-05-06 15:42 | 48.35457 | 11.79314 | 1473 ft | 4 kts | 263° |
| 2026-05-06 15:42 | 48.35460 | 11.79354 | 1472 ft | 4 kts | 263° |
| 2026-05-06 15:43 | 48.35463 | 11.79386 | 1476 ft | 2 kts | 263° |
| 2026-05-06 15:43 | 48.35464 | 11.79423 | 1477 ft | 4 kts | 287° |
| 2026-05-06 15:43 | 48.35450 | 11.79453 | 1471 ft | 4 kts | 344° |
| 2026-05-06 15:43 | 48.35430 | 11.79458 | 1472 ft | 3 kts | 353° |
| 2026-05-06 15:44 | 48.35425 | 11.79459 | 1473 ft | 1 kts | 353° |
| 2026-05-06 15:47 | 48.35428 | 11.79459 | 1473 ft | 1 kts | 1° |
| 2026-05-06 15:48 | 48.35435 | 11.79465 | 1479 ft | 2 kts | 20° |
| 2026-05-06 15:48 | 48.35450 | 11.79486 | 1474 ft | 4 kts | 50° |
| 2026-05-06 15:48 | 48.35453 | 11.79492 | 1476 ft | 0 kts | 51° |
| 2026-05-06 15:49 | 48.35459 | 11.79501 | 1471 ft | 3 kts | 48° |
| 2026-05-06 15:50 | 48.35484 | 11.79516 | 1475 ft | 5 kts | 5° |
| 2026-05-06 15:50 | 48.35529 | 11.79509 | 1474 ft | 8 kts | 357° |
| 2026-05-06 15:50 | 48.35586 | 11.79539 | 1475 ft | 10 kts | 26° |
| 2026-05-06 15:50 | 48.35662 | 11.79554 | 1485 ft | 12 kts | 352° |
| 2026-05-06 15:51 | 48.35754 | 11.79537 | 1478 ft | 14 kts | 353° |
| 2026-05-06 15:51 | 48.35858 | 11.79517 | 1479 ft | 16 kts | 353° |
| 2026-05-06 15:51 | 48.35973 | 11.79500 | 1480 ft | 17 kts | 353° |
| 2026-05-06 15:51 | 48.36072 | 11.79481 | 1479 ft | 15 kts | 352° |
| 2026-05-06 15:52 | 48.36172 | 11.79468 | 1473 ft | 14 kts | 4° |
| 2026-05-06 15:52 | 48.36223 | 11.79585 | 1473 ft | 16 kts | 85° |
| 2026-05-06 15:52 | 48.36237 | 11.79763 | 1473 ft | 18 kts | 83° |
| 2026-05-06 15:52 | 48.36253 | 11.79961 | 1481 ft | 20 kts | 84° |
| 2026-05-06 15:53 | 48.36268 | 11.80184 | 1482 ft | 23 kts | 84° |
| 2026-05-06 15:53 | 48.36286 | 11.80400 | 1482 ft | 24 kts | 82° |
| 2026-05-06 15:53 | 48.36293 | 11.80493 | 1475 ft | 1 kts | 91° |
| 2026-05-06 15:53 | 48.36295 | 11.80533 | 1481 ft | 6 kts | 83° |
| 2026-05-06 15:54 | 48.36302 | 11.80619 | 1485 ft | 10 kts | 82° |
| 2026-05-06 15:54 | 48.36312 | 11.80741 | 1476 ft | 13 kts | 83° |
| 2026-05-06 15:54 | 48.36325 | 11.80914 | 1478 ft | 20 kts | 83° |
| 2026-05-06 15:54 | 48.36343 | 11.81146 | 1482 ft | 24 kts | 84° |
| 2026-05-06 15:55 | 48.36362 | 11.81397 | 1485 ft | 22 kts | 85° |
| 2026-05-06 15:55 | 48.36372 | 11.81610 | 1483 ft | 19 kts | 85° |
| 2026-05-06 15:55 | 48.36390 | 11.81817 | 1482 ft | 21 kts | 81° |
| 2026-05-06 15:55 | 48.36396 | 11.81938 | 1485 ft | 10 kts | 83° |
| 2026-05-06 15:56 | 48.36437 | 11.81997 | 1484 ft | 9 kts | 15° |
| 2026-05-06 15:56 | 48.36498 | 11.81995 | 1485 ft | 10 kts | 353° |
| 2026-05-06 15:56 | 48.36570 | 11.81982 | 1478 ft | 11 kts | 353° |
| 2026-05-06 15:56 | 48.36653 | 11.81966 | 1485 ft | 13 kts | 349° |
| 2026-05-06 15:57 | 48.36674 | 11.81922 | 1478 ft | 1 kts | 262° |
| 2026-05-06 15:57 | 48.36672 | 11.81901 | 1481 ft | 3 kts | 263° |
| 2026-05-06 15:57 | 48.36672 | 11.81900 | 1481 ft | 0 kts | 263° |
| 2026-05-06 15:59 | 48.36671 | 11.81886 | 1483 ft | 12 kts | 263° |
| 2026-05-06 15:59 | 48.36627 | 11.81303 | 1478 ft | 97 kts | 263° |
| 2026-05-06 15:59 | 48.36562 | 11.80478 | 1477 ft | 141 kts | 263° |
| 2026-05-06 15:59 | 48.36427 | 11.78770 | 1690 ft | 180 kts | 264° |
| 2026-05-06 16:00 | 48.36302 | 11.76752 | 2178 ft | 207 kts | 267° |
| 2026-05-06 16:00 | 48.36204 | 11.74447 | 2605 ft | 236 kts | 267° |
| 2026-05-06 16:00 | 48.36042 | 11.71939 | 3377 ft | 243 kts | 263° |
| 2026-05-06 16:00 | 48.35848 | 11.69368 | 4175 ft | 254 kts | 270° |
| 2026-05-06 16:01 | 48.36224 | 11.66697 | 4738 ft | 275 kts | 295° |
| 2026-05-06 16:01 | 48.37219 | 11.64128 | 5344 ft | 288 kts | 301° |
| 2026-05-06 16:01 | 48.38273 | 11.61609 | 6514 ft | 284 kts | 300° |
| 2026-05-06 16:01 | 48.39323 | 11.59102 | 7575 ft | 283 kts | 300° |
| 2026-05-06 16:02 | 48.40593 | 11.56825 | 8568 ft | 290 kts | 320° |
| 2026-05-06 16:02 | 48.42373 | 11.55306 | 9352 ft | 300 kts | 333° |
| 2026-05-06 16:02 | 48.44288 | 11.53978 | 9663 ft | 303 kts | 334° |
| 2026-05-06 16:02 | 48.46238 | 11.52685 | 9773 ft | 316 kts | 334° |
| 2026-05-06 16:03 | 48.48328 | 11.51298 | 10073 ft | 340 kts | 334° |
| 2026-05-06 16:03 | 48.50572 | 11.49798 | 10351 ft | 364 kts | 334° |
| 2026-05-06 16:03 | 48.52944 | 11.48200 | 10685 ft | 383 kts | 334° |
| 2026-05-06 16:03 | 48.55428 | 11.46519 | 11115 ft | 396 kts | 334° |
| 2026-05-06 16:04 | 48.57950 | 11.44810 | 11895 ft | 399 kts | 334° |
| 2026-05-06 16:04 | 48.60487 | 11.43089 | 12666 ft | 402 kts | 333° |
| 2026-05-06 16:04 | 48.63048 | 11.41347 | 13407 ft | 406 kts | 333° |
| 2026-05-06 16:04 | 48.65603 | 11.39605 | 14067 ft | 410 kts | 333° |
| 2026-05-06 16:05 | 48.68228 | 11.37813 | 14666 ft | 415 kts | 332° |
| 2026-05-06 16:05 | 48.70809 | 11.35798 | 15193 ft | 419 kts | 325° |
| 2026-05-06 16:05 | 48.73243 | 11.33352 | 15825 ft | 421 kts | 322° |
| 2026-05-06 16:05 | 48.75689 | 11.30864 | 16486 ft | 424 kts | 322° |
| 2026-05-06 16:06 | 48.78152 | 11.28375 | 17168 ft | 427 kts | 322° |
| 2026-05-06 16:06 | 48.80640 | 11.25857 | 17764 ft | 432 kts | 322° |
| 2026-05-06 16:06 | 48.83149 | 11.23310 | 18331 ft | 435 kts | 321° |
| 2026-05-06 16:06 | 48.85542 | 11.20505 | 18637 ft | 434 kts | 314° |
| 2026-05-06 16:07 | 48.87766 | 11.17401 | 18737 ft | 434 kts | 313° |
| 2026-05-06 16:07 | 48.89991 | 11.14293 | 18752 ft | 435 kts | 313° |
| 2026-05-06 16:07 | 48.92225 | 11.11179 | 18761 ft | 434 kts | 313° |
| 2026-05-06 16:07 | 48.94454 | 11.08072 | 18765 ft | 434 kts | 313° |
| 2026-05-06 16:08 | 48.96679 | 11.04965 | 18766 ft | 434 kts | 313° |
| 2026-05-06 16:08 | 48.98901 | 11.01850 | 18769 ft | 433 kts | 314° |
| 2026-05-06 16:08 | 49.01114 | 10.98741 | 18770 ft | 433 kts | 314° |
| 2026-05-06 16:08 | 49.03326 | 10.95630 | 18794 ft | 433 kts | 314° |
| 2026-05-06 16:09 | 49.05539 | 10.92515 | 18794 ft | 433 kts | 314° |
| 2026-05-06 16:09 | 49.07752 | 10.89397 | 18795 ft | 433 kts | 314° |
| 2026-05-06 16:09 | 49.09962 | 10.86280 | 18792 ft | 433 kts | 314° |
| 2026-05-06 16:09 | 49.12177 | 10.83149 | 18805 ft | 433 kts | 314° |
| 2026-05-06 16:10 | 49.14363 | 10.80054 | 18805 ft | 433 kts | 314° |
| 2026-05-06 16:10 | 49.16569 | 10.76928 | 18808 ft | 433 kts | 314° |
| 2026-05-06 16:10 | 49.18778 | 10.73793 | 18809 ft | 433 kts | 314° |
| 2026-05-06 16:10 | 49.20968 | 10.70640 | 18805 ft | 432 kts | 312° |
| 2026-05-06 16:11 | 49.23114 | 10.67297 | 18801 ft | 448 kts | 311° |
| 2026-05-06 16:11 | 49.25287 | 10.63808 | 18794 ft | 454 kts | 311° |
| 2026-05-06 16:11 | 49.27468 | 10.60308 | 18795 ft | 454 kts | 311° |
| 2026-05-06 16:11 | 49.29659 | 10.56812 | 18794 ft | 454 kts | 311° |
| 2026-05-06 16:12 | 49.31852 | 10.53330 | 18795 ft | 454 kts | 311° |
| 2026-05-06 16:12 | 49.34048 | 10.49849 | 18795 ft | 454 kts | 311° |
| 2026-05-06 16:12 | 49.36164 | 10.46272 | 18794 ft | 452 kts | 306° |
| 2026-05-06 16:12 | 49.38015 | 10.42394 | 18798 ft | 450 kts | 302° |
| 2026-05-06 16:13 | 49.39810 | 10.38438 | 18798 ft | 451 kts | 302° |
| 2026-05-06 16:13 | 49.41610 | 10.34503 | 18800 ft | 450 kts | 302° |
| 2026-05-06 16:13 | 49.43389 | 10.30612 | 18802 ft | 451 kts | 302° |
| 2026-05-06 16:13 | 49.45194 | 10.26654 | 18797 ft | 452 kts | 302° |
| 2026-05-06 16:14 | 49.46994 | 10.22697 | 18799 ft | 451 kts | 302° |
| 2026-05-06 16:14 | 49.48795 | 10.18732 | 18799 ft | 451 kts | 302° |
| 2026-05-06 16:14 | 49.50589 | 10.14771 | 18799 ft | 451 kts | 302° |
| 2026-05-06 16:14 | 49.52385 | 10.10801 | 18800 ft | 451 kts | 302° |
| 2026-05-06 16:15 | 49.54176 | 10.06835 | 18800 ft | 452 kts | 302° |
| 2026-05-06 16:15 | 49.55967 | 10.02864 | 18797 ft | 452 kts | 302° |
| 2026-05-06 16:15 | 49.57760 | 9.98883 | 18800 ft | 452 kts | 302° |
| 2026-05-06 16:15 | 49.59554 | 9.94894 | 18799 ft | 451 kts | 302° |
| 2026-05-06 16:16 | 49.61340 | 9.90915 | 18805 ft | 451 kts | 302° |
| 2026-05-06 16:16 | 49.63126 | 9.86929 | 18794 ft | 451 kts | 302° |
| 2026-05-06 16:16 | 49.64910 | 9.82944 | 18791 ft | 451 kts | 302° |
| 2026-05-06 16:16 | 49.66672 | 9.79003 | 18788 ft | 451 kts | 302° |
| 2026-05-06 16:17 | 49.68452 | 9.75015 | 18792 ft | 451 kts | 302° |
| 2026-05-06 16:17 | 49.70233 | 9.71017 | 18791 ft | 451 kts | 302° |
| 2026-05-06 16:17 | 49.72005 | 9.67037 | 18769 ft | 444 kts | 302° |
| 2026-05-06 16:17 | 49.73721 | 9.63181 | 18553 ft | 428 kts | 302° |
| 2026-05-06 16:18 | 49.75389 | 9.59425 | 18105 ft | 418 kts | 302° |
| 2026-05-06 16:18 | 49.77008 | 9.55768 | 17712 ft | 405 kts | 302° |
| 2026-05-06 16:18 | 49.78571 | 9.52236 | 17576 ft | 388 kts | 302° |
| 2026-05-06 16:18 | 49.80058 | 9.48866 | 17494 ft | 370 kts | 302° |
| 2026-05-06 16:19 | 49.81479 | 9.45643 | 17500 ft | 360 kts | 302° |
| 2026-05-06 16:19 | 49.82894 | 9.42428 | 17411 ft | 359 kts | 302° |
| 2026-05-06 16:19 | 49.84288 | 9.39257 | 17030 ft | 353 kts | 302° |
| 2026-05-06 16:19 | 49.85669 | 9.36136 | 16600 ft | 349 kts | 302° |
| 2026-05-06 16:20 | 49.87047 | 9.33044 | 16077 ft | 347 kts | 302° |
| 2026-05-06 16:20 | 49.88410 | 9.29976 | 15658 ft | 344 kts | 302° |
| 2026-05-06 16:20 | 49.89703 | 9.26927 | 15180 ft | 340 kts | 295° |
| 2026-05-06 16:20 | 49.90407 | 9.23487 | 14736 ft | 333 kts | 278° |
| 2026-05-06 16:21 | 49.90722 | 9.19934 | 14224 ft | 332 kts | 274° |
| 2026-05-06 16:21 | 49.90942 | 9.16375 | 13728 ft | 331 kts | 273° |
| 2026-05-06 16:21 | 49.91158 | 9.12830 | 13184 ft | 330 kts | 274° |
| 2026-05-06 16:21 | 49.91369 | 9.09278 | 12637 ft | 329 kts | 274° |
| 2026-05-06 16:22 | 49.91725 | 9.05777 | 12085 ft | 330 kts | 287° |
| 2026-05-06 16:22 | 49.92852 | 9.02692 | 11553 ft | 332 kts | 309° |
| 2026-05-06 16:22 | 49.94665 | 9.00490 | 11025 ft | 334 kts | 332° |
| 2026-05-06 16:22 | 49.96867 | 8.99523 | 10511 ft | 328 kts | 355° |
| 2026-05-06 16:23 | 49.99122 | 8.99696 | 10016 ft | 321 kts | 3° |
| 2026-05-06 16:23 | 50.01319 | 9.00038 | 9527 ft | 313 kts | 3° |
| 2026-05-06 16:23 | 50.03463 | 9.00373 | 8995 ft | 306 kts | 5° |
| 2026-05-06 16:23 | 50.05475 | 9.01331 | 8472 ft | 302 kts | 29° |
| 2026-05-06 16:24 | 50.07087 | 9.03370 | 7968 ft | 297 kts | 43° |
| 2026-05-06 16:24 | 50.08534 | 9.05559 | 7470 ft | 293 kts | 44° |
| 2026-05-06 16:24 | 50.10103 | 9.07574 | 6968 ft | 288 kts | 26° |
| 2026-05-06 16:24 | 50.11993 | 9.08431 | 6470 ft | 279 kts | 359° |
| 2026-05-06 16:25 | 50.13838 | 9.07909 | 5979 ft | 268 kts | 332° |
| 2026-05-06 16:25 | 50.15257 | 9.06182 | 5464 ft | 255 kts | 302° |
| 2026-05-06 16:25 | 50.15923 | 9.03783 | 4970 ft | 244 kts | 274° |
| 2026-05-06 16:25 | 50.15762 | 9.01189 | 4477 ft | 237 kts | 251° |
| 2026-05-06 16:26 | 50.14975 | 8.98971 | 4008 ft | 233 kts | 232° |
| 2026-05-06 16:26 | 50.13999 | 8.97028 | 3834 ft | 219 kts | 232° |
| 2026-05-06 16:26 | 50.13078 | 8.95250 | 3790 ft | 206 kts | 231° |
| 2026-05-06 16:26 | 50.12281 | 8.93453 | 3787 ft | 201 kts | 242° |
| 2026-05-06 16:27 | 50.11743 | 8.91433 | 3793 ft | 203 kts | 250° |
| 2026-05-06 16:27 | 50.11289 | 8.89438 | 3807 ft | 187 kts | 250° |
| 2026-05-06 16:27 | 50.10868 | 8.87507 | 3802 ft | 190 kts | 251° |
| 2026-05-06 16:27 | 50.10450 | 8.85638 | 3794 ft | 176 kts | 250° |
| 2026-05-06 16:28 | 50.10019 | 8.83827 | 3762 ft | 180 kts | 249° |
| 2026-05-06 16:28 | 50.09593 | 8.82036 | 3555 ft | 173 kts | 249° |
| 2026-05-06 16:28 | 50.09183 | 8.80318 | 3329 ft | 168 kts | 250° |
| 2026-05-06 16:28 | 50.08774 | 8.78608 | 3104 ft | 168 kts | 250° |
| 2026-05-06 16:29 | 50.08377 | 8.76942 | 2886 ft | 163 kts | 250° |
| 2026-05-06 16:29 | 50.07981 | 8.75283 | 2652 ft | 161 kts | 250° |
| 2026-05-06 16:29 | 50.07579 | 8.73602 | 2443 ft | 167 kts | 251° |
| 2026-05-06 16:29 | 50.07191 | 8.71979 | 2218 ft | 156 kts | 251° |
| 2026-05-06 16:30 | 50.06827 | 8.70455 | 2028 ft | 137 kts | 252° |
| 2026-05-06 16:30 | 50.06620 | 8.69592 | 1900 ft | 125 kts | 253° |
| 2026-05-06 16:30 | 50.06234 | 8.67969 | 1696 ft | 123 kts | 253° |
| 2026-05-06 16:30 | 50.05940 | 8.66742 | 1525 ft | 119 kts | 253° |
| 2026-05-06 16:31 | 50.05655 | 8.65546 | 1369 ft | 116 kts | 254° |
| 2026-05-06 16:31 | 50.05368 | 8.64337 | 1184 ft | 119 kts | 253° |
| 2026-05-06 16:31 | 50.05080 | 8.63135 | 1008 ft | 121 kts | 254° |
| 2026-05-06 16:31 | 50.04769 | 8.61916 | 814 ft | 123 kts | 254° |
| 2026-05-06 16:32 | 50.04496 | 8.60731 | 654 ft | 117 kts | 255° |
| 2026-05-06 16:32 | 50.04210 | 8.59481 | 511 ft | 127 kts | 254° |
| 2026-05-06 16:32 | 50.03905 | 8.58228 | 391 ft | 124 kts | 251° |
| 2026-05-06 16:32 | 50.03635 | 8.57106 | 356 ft | 88 kts | 245° |
| 2026-05-06 16:33 | 50.03495 | 8.56510 | 355 ft | 29 kts | 250° |
| 2026-05-06 16:33 | 50.03456 | 8.56329 | 353 ft | 13 kts | 254° |
| 2026-05-06 16:33 | 50.03439 | 8.56172 | 353 ft | 16 kts | 271° |
| 2026-05-06 16:34 | 50.03472 | 8.55773 | 346 ft | 20 kts | 281° |
| 2026-05-06 16:34 | 50.03534 | 8.55717 | 350 ft | 10 kts | 32° |
| 2026-05-06 16:34 | 50.03571 | 8.55797 | 348 ft | 9 kts | 67° |
| 2026-05-06 16:34 | 50.03582 | 8.55842 | 354 ft | 10 kts | 69° |
| 2026-05-06 16:35 | 50.03586 | 8.55859 | 354 ft | 10 kts | 68° |
| 2026-05-06 16:35 | 50.03613 | 8.55973 | 356 ft | 12 kts | 71° |
| 2026-05-06 16:35 | 50.03642 | 8.56103 | 355 ft | 14 kts | 71° |
| 2026-05-06 16:36 | 50.03678 | 8.56248 | 354 ft | 15 kts | 68° |
| 2026-05-06 16:36 | 50.03717 | 8.56421 | 357 ft | 18 kts | 70° |
| 2026-05-06 16:36 | 50.03765 | 8.56618 | 352 ft | 21 kts | 69° |
| 2026-05-06 16:36 | 50.03815 | 8.56834 | 358 ft | 22 kts | 70° |
| 2026-05-06 16:37 | 50.03873 | 8.57071 | 362 ft | 23 kts | 69° |
| 2026-05-06 16:37 | 50.03927 | 8.57298 | 365 ft | 22 kts | 68° |
| 2026-05-06 16:37 | 50.03980 | 8.57519 | 367 ft | 22 kts | 70° |
| 2026-05-06 16:37 | 50.04037 | 8.57753 | 369 ft | 24 kts | 70° |
| 2026-05-06 16:38 | 50.04095 | 8.58003 | 367 ft | 23 kts | 69° |
| 2026-05-06 16:38 | 50.04177 | 8.58160 | 368 ft | 19 kts | 31° |
| 2026-05-06 16:38 | 50.04288 | 8.58200 | 368 ft | 11 kts | 345° |
| 2026-05-06 16:38 | 50.04292 | 8.58198 | 366 ft | 0 kts | 345° |
| 2026-05-06 16:39 | 50.04300 | 8.58194 | 370 ft | 2 kts | 345° |
| 2026-05-06 16:39 | 50.04313 | 8.58187 | 370 ft | 2 kts | 340° |
| 2026-05-06 16:39 | 50.04365 | 8.58158 | 370 ft | 13 kts | 339° |
| 2026-05-06 16:39 | 50.04463 | 8.58099 | 367 ft | 18 kts | 339° |
| 2026-05-06 16:40 | 50.04531 | 8.58061 | 366 ft | 9 kts | 340° |
| 2026-05-06 16:40 | 50.04612 | 8.58015 | 360 ft | 6 kts | 340° |
| 2026-05-06 16:40 | 50.04615 | 8.58013 | 362 ft | 0 kts | 340° |
| 2026-05-06 16:40 | 50.04616 | 8.58012 | 362 ft | 1 kts | 340° |
| 2026-05-06 16:41 | 50.04643 | 8.57997 | 360 ft | 7 kts | 340° |
| 2026-05-06 16:41 | 50.04713 | 8.57957 | 360 ft | 15 kts | 340° |
| 2026-05-06 16:41 | 50.04820 | 8.57888 | 363 ft | 18 kts | 323° |
| 2026-05-06 16:41 | 50.04878 | 8.57723 | 361 ft | 18 kts | 292° |
| 2026-05-06 16:42 | 50.04931 | 8.57535 | 356 ft | 15 kts | 288° |
| 2026-05-06 16:42 | 50.04965 | 8.57429 | 361 ft | 8 kts | 307° |
| 2026-05-06 16:42 | 50.04991 | 8.57403 | 358 ft | 1 kts | 336° |
| 2026-05-06 16:42 | 50.04999 | 8.57405 | 357 ft | 1 kts | 14° |
| 2026-05-06 16:43 | 50.05003 | 8.57416 | 356 ft | 0 kts | 67° |
| 2026-05-06 16:43 | 50.05004 | 8.57423 | 356 ft | 0 kts | 78° |
| 2026-05-06 16:43 | 50.05005 | 8.57429 | 364 ft | 0 kts | 77° |